Navios Libra 2 — 3FRE4 — position and weather

sailwx.info

Track history (hours):
 
Tides and Currents Weather Stations Pressure Air Temp Water Temp Dewpoint Dewpoint Depression Visibility Wind Speed Wind Dir Waves Ship Positions

Navios Libra 2

Last reported at 2017-Oct-19 08:44 UTC. Time now 2017-Oct-19 09:19 UTC.
Position N 36°07' W 005°22'.

Length 224 m; draft 7.8 m.

Type: Cargo ship. MMSI: 354330000.

Date/timePositionNaut miles runAvg speedWind from/ knotsBaromVisibWave heightAir tempDewpointWater temp
2017-Oct-19 08:44N 36°07' W 005°22'0 0.1
2017-Oct-19 06:29N 36°07' W 005°22'0 0.0
2017-Oct-19 05:36N 36°07' W 005°22'0 0.4
2017-Oct-19 05:30N 36°07' W 005°22'0 0.1
2017-Oct-19 05:00N 36°07' W 005°22'0 0.1
2017-Oct-19 04:30N 36°07' W 005°22'0 0.1
2017-Oct-19 04:00N 36°07' W 005°22'0 0.1
2017-Oct-19 03:29N 36°07' W 005°22'0 0.1
2017-Oct-19 03:00N 36°07' W 005°22'0 0.0
2017-Oct-19 02:30N 36°07' W 005°22'0 0.0
2017-Oct-19 02:00N 36°07' W 005°22'0 0.2
2017-Oct-19 01:30N 36°07' W 005°22'0 0.0
2017-Oct-19 01:00N 36°07' W 005°22'0 0.1
2017-Oct-19 00:30N 36°07' W 005°22'0 0.0
2017-Oct-19 00:00N 36°07' W 005°22'0 0.0
2017-Oct-18 23:30N 36°07' W 005°22'0 0.1
2017-Oct-18 23:00N 36°07' W 005°22'0 0.1
2017-Oct-18 22:30N 36°07' W 005°22'0 0.1
2017-Oct-18 21:51N 36°07' W 005°22'0 0.2
2017-Oct-18 21:30N 36°07' W 005°22'0 0.1
2017-Oct-18 21:00N 36°07' W 005°22'0 0.2
2017-Oct-18 20:30N 36°07' W 005°22'1 2.6
2017-Oct-18 20:00N 36°06' W 005°21'4 7.9
2017-Oct-18 19:30N 36°05' W 005°16'5 9.0
2017-Oct-18 19:00N 36°05' W 005°11'19911.3
2017-Oct-18 01:24N 36°19' W 001°04'513.6
2017-Oct-18 01:00N 36°20' W 000°58'713.7
2017-Oct-18 00:30N 36°21' W 000°50'713.4
2017-Oct-17 23:59N 36°23' W 000°41'713.2
2017-Oct-17 23:29N 36°25' W 000°33'1313.1
2017-Oct-17 22:31N 36°29' W 000°18'013.3
2017-Oct-17 22:30N 36°29' W 000°18'1313.2
2017-Oct-17 21:31N 36°32' W 000°02'013.1
2017-Oct-17 21:30N 36°32' W 000°02'813.2
2017-Oct-17 20:55N 36°34' E 000°07'712.9
2017-Oct-17 20:24N 36°36' E 000°15'513.0
2017-Oct-17 20:00N 36°38' E 000°21'713.3
2017-Oct-17 19:30N 36°39' E 000°29'713.9
2017-Oct-17 19:00N 36°41' E 000°37'714.0
2017-Oct-17 18:30N 36°43' E 000°46'713.9
2017-Oct-17 18:00N 36°45' E 000°54'713.8
2017-Oct-17 17:30N 36°47' E 001°02'713.6
2017-Oct-17 17:00N 36°49' E 001°11'713.6
2017-Oct-17 16:28N 36°51' E 001°19'1213.6
2017-Oct-17 15:36N 36°54' E 001°33'213.7
2017-Oct-17 15:29N 36°55' E 001°35'32313.4
2017-Oct-16 15:19N 37°19' E 008°20'514.1
2017-Oct-16 15:00N 37°19' E 008°26'9313.4
2017-Oct-16 08:03N 37°39' E 010°20'212.8
2017-Oct-16 07:55N 37°39' E 010°22'2113.1
2017-Oct-16 06:21N 37°34' E 010°48'513.3
2017-Oct-16 06:00N 37°33' E 010°53'713.3
2017-Oct-16 05:31N 37°31' E 011°01'1413.4
2017-Oct-16 04:29N 37°25' E 011°17'2713.5
2017-Oct-16 02:28N 37°12' E 011°47'4113.5
2017-Oct-15 23:24N 36°57' E 012°35'512.9
2017-Oct-15 23:00N 36°56' E 012°41'612.9
2017-Oct-15 22:30N 36°54' E 012°49'713.1
2017-Oct-15 21:59N 36°52' E 012°57'613.1
2017-Oct-15 21:30N 36°50' E 013°05'713.1
2017-Oct-15 21:00N 36°48' E 013°12'613.0
2017-Oct-15 20:31N 36°46' E 013°20'713.0
2017-Oct-15 20:00N 36°44' E 013°28'612.8
2017-Oct-15 19:30N 36°42' E 013°35'612.7
2017-Oct-15 19:00N 36°40' E 013°43'612.7
2017-Oct-15 18:30N 36°38' E 013°50'612.5
2017-Oct-15 18:00N 36°36' E 013°58'612.6
2017-Oct-15 17:30N 36°34' E 014°05'612.5
2017-Oct-15 17:00N 36°32' E 014°13'612.5
2017-Oct-15 16:30N 36°31' E 014°20'612.7
2017-Oct-15 16:00N 36°29' E 014°28'612.6
2017-Oct-15 15:30N 36°28' E 014°35'612.6
2017-Oct-15 15:00N 36°28' E 014°43'2112.8
2017-Oct-15 13:24N 36°28' E 015°09'21112.9
2017-Oct-14 21:02N 36°23' E 019°31'012.9
2017-Oct-14 21:00N 36°23' E 019°32'360 8.0
2017-Oct-13 00:07N 39°47' E 025°48'213.4
2017-Oct-12 23:56N 39°49' E 025°50'1313.9
2017-Oct-12 23:01N 40°00' E 025°58'012.7
2017-Oct-12 23:00N 40°00' E 025°58'713.6
2017-Oct-12 22:30N 40°01' E 026°07'152 7.0
2017-Oct-12 00:43N 40°43' E 029°19'0 0.7
2017-Oct-12 00:29N 40°43' E 029°19'0 0.8
2017-Oct-12 00:00N 40°43' E 029°18'0 0.3
2017-Oct-11 23:30N 40°43' E 029°18'1 1.6
2017-Oct-11 23:00N 40°43' E 029°19'4 7.5
2017-Oct-11 22:29N 40°44' E 029°24'3 6.4
2017-Oct-11 22:00N 40°44' E 029°28'0 0.2
2017-Oct-11 21:29N 40°44' E 029°28'0 0.9
2017-Oct-11 21:00N 40°43' E 029°27'0 0.6
2017-Oct-11 20:30N 40°43' E 029°27'  
Track history (hours):
 
Tides and Currents Weather Stations Pressure Air Temp Water Temp Dewpoint Dewpoint Depression Visibility Wind Speed Wind Dir Waves Ship Positions

Navios Libra 2

Last reported at 2017-Oct-19 08:44 UTC. Time now 2017-Oct-19 09:19 UTC.
Position N 36°07' W 005°22'.

Length 224 m; draft 7.8 m.

Type: Cargo ship. MMSI: 354330000.

Date/timePositionNaut miles runAvg speedWind from/ knotsBaromVisibWave heightAir tempDewpointWater temp
2017-Oct-19 08:44N 36°07' W 005°22'0 0.1
2017-Oct-19 06:29N 36°07' W 005°22'0 0.0
2017-Oct-19 05:36N 36°07' W 005°22'0 0.4
2017-Oct-19 05:30N 36°07' W 005°22'0 0.1
2017-Oct-19 05:00N 36°07' W 005°22'0 0.1
2017-Oct-19 04:30N 36°07' W 005°22'0 0.1
2017-Oct-19 04:00N 36°07' W 005°22'0 0.1
2017-Oct-19 03:29N 36°07' W 005°22'0 0.1
2017-Oct-19 03:00N 36°07' W 005°22'0 0.0
2017-Oct-19 02:30N 36°07' W 005°22'0 0.0
2017-Oct-19 02:00N 36°07' W 005°22'0 0.2
2017-Oct-19 01:30N 36°07' W 005°22'0 0.0
2017-Oct-19 01:00N 36°07' W 005°22'0 0.1
2017-Oct-19 00:30N 36°07' W 005°22'0 0.0
2017-Oct-19 00:00N 36°07' W 005°22'0 0.0
2017-Oct-18 23:30N 36°07' W 005°22'0 0.1
2017-Oct-18 23:00N 36°07' W 005°22'0 0.1
2017-Oct-18 22:30N 36°07' W 005°22'0 0.1
2017-Oct-18 21:51N 36°07' W 005°22'0 0.2
2017-Oct-18 21:30N 36°07' W 005°22'0 0.1
2017-Oct-18 21:00N 36°07' W 005°22'0 0.2
2017-Oct-18 20:30N 36°07' W 005°22'1 2.6
2017-Oct-18 20:00N 36°06' W 005°21'4 7.9
2017-Oct-18 19:30N 36°05' W 005°16'5 9.0
2017-Oct-18 19:00N 36°05' W 005°11'19911.3
2017-Oct-18 01:24N 36°19' W 001°04'513.6
2017-Oct-18 01:00N 36°20' W 000°58'713.7
2017-Oct-18 00:30N 36°21' W 000°50'713.4
2017-Oct-17 23:59N 36°23' W 000°41'713.2
2017-Oct-17 23:29N 36°25' W 000°33'1313.1
2017-Oct-17 22:31N 36°29' W 000°18'013.3
2017-Oct-17 22:30N 36°29' W 000°18'1313.2
2017-Oct-17 21:31N 36°32' W 000°02'013.1
2017-Oct-17 21:30N 36°32' W 000°02'813.2
2017-Oct-17 20:55N 36°34' E 000°07'712.9
2017-Oct-17 20:24N 36°36' E 000°15'513.0
2017-Oct-17 20:00N 36°38' E 000°21'713.3
2017-Oct-17 19:30N 36°39' E 000°29'713.9
2017-Oct-17 19:00N 36°41' E 000°37'714.0
2017-Oct-17 18:30N 36°43' E 000°46'713.9
2017-Oct-17 18:00N 36°45' E 000°54'713.8
2017-Oct-17 17:30N 36°47' E 001°02'713.6
2017-Oct-17 17:00N 36°49' E 001°11'713.6
2017-Oct-17 16:28N 36°51' E 001°19'1213.6
2017-Oct-17 15:36N 36°54' E 001°33'213.7
2017-Oct-17 15:29N 36°55' E 001°35'32313.4
2017-Oct-16 15:19N 37°19' E 008°20'514.1
2017-Oct-16 15:00N 37°19' E 008°26'9313.4
2017-Oct-16 08:03N 37°39' E 010°20'212.8
2017-Oct-16 07:55N 37°39' E 010°22'2113.1
2017-Oct-16 06:21N 37°34' E 010°48'513.3
2017-Oct-16 06:00N 37°33' E 010°53'713.3
2017-Oct-16 05:31N 37°31' E 011°01'1413.4
2017-Oct-16 04:29N 37°25' E 011°17'2713.5
2017-Oct-16 02:28N 37°12' E 011°47'4113.5
2017-Oct-15 23:24N 36°57' E 012°35'512.9
2017-Oct-15 23:00N 36°56' E 012°41'612.9
2017-Oct-15 22:30N 36°54' E 012°49'713.1
2017-Oct-15 21:59N 36°52' E 012°57'613.1
2017-Oct-15 21:30N 36°50' E 013°05'713.1
2017-Oct-15 21:00N 36°48' E 013°12'613.0
2017-Oct-15 20:31N 36°46' E 013°20'713.0
2017-Oct-15 20:00N 36°44' E 013°28'612.8
2017-Oct-15 19:30N 36°42' E 013°35'612.7
2017-Oct-15 19:00N 36°40' E 013°43'612.7
2017-Oct-15 18:30N 36°38' E 013°50'612.5
2017-Oct-15 18:00N 36°36' E 013°58'612.6
2017-Oct-15 17:30N 36°34' E 014°05'612.5
2017-Oct-15 17:00N 36°32' E 014°13'612.5
2017-Oct-15 16:30N 36°31' E 014°20'612.7
2017-Oct-15 16:00N 36°29' E 014°28'612.6
2017-Oct-15 15:30N 36°28' E 014°35'612.6
2017-Oct-15 15:00N 36°28' E 014°43'2112.8
2017-Oct-15 13:24N 36°28' E 015°09'21112.9
2017-Oct-14 21:02N 36°23' E 019°31'012.9
2017-Oct-14 21:00N 36°23' E 019°32'360 8.0
2017-Oct-13 00:07N 39°47' E 025°48'213.4
2017-Oct-12 23:56N 39°49' E 025°50'1313.9
2017-Oct-12 23:01N 40°00' E 025°58'012.7
2017-Oct-12 23:00N 40°00' E 025°58'713.6
2017-Oct-12 22:30N 40°01' E 026°07'152 7.0
2017-Oct-12 00:43N 40°43' E 029°19'0 0.7
2017-Oct-12 00:29N 40°43' E 029°19'0 0.8
2017-Oct-12 00:00N 40°43' E 029°18'0 0.3
2017-Oct-11 23:30N 40°43' E 029°18'1 1.6
2017-Oct-11 23:00N 40°43' E 029°19'4 7.5
2017-Oct-11 22:29N 40°44' E 029°24'3 6.4
2017-Oct-11 22:00N 40°44' E 029°28'0 0.2
2017-Oct-11 21:29N 40°44' E 029°28'0 0.9
2017-Oct-11 21:00N 40°43' E 029°27'0 0.6
2017-Oct-11 20:30N 40°43' E 029°27'  

Dump ship's entire track history